sensor_id;sensor_type;location;lat;lon;timestamp;pressure;altitude;pressure_sealevel;temperature;humidity
7918;BME280;4004;42.624;23.386;2023-03-15T00:00:11;93161.25;;;6.09;44.36
7918;BME280;4004;42.624;23.386;2023-03-15T00:02:38;93160.75;;;6.04;44.73
7918;BME280;4004;42.624;23.386;2023-03-15T00:05:06;93147.31;;;6.00;44.48
7918;BME280;4004;42.624;23.386;2023-03-15T00:07:33;93143.28;;;5.90;44.41
7918;BME280;4004;42.624;23.386;2023-03-15T00:10:01;93144.00;;;5.87;44.28
7918;BME280;4004;42.624;23.386;2023-03-15T00:12:28;93132.91;;;5.85;44.56
7918;BME280;4004;42.624;23.386;2023-03-15T00:14:55;93140.81;;;5.81;44.90
7918;BME280;4004;42.624;23.386;2023-03-15T00:17:22;93139.97;;;5.77;45.00
7918;BME280;4004;42.624;23.386;2023-03-15T00:19:48;93139.53;;;5.75;45.05
7918;BME280;4004;42.624;23.386;2023-03-15T00:22:15;93133.78;;;5.73;44.89
7918;BME280;4004;42.624;23.386;2023-03-15T00:24:42;93133.94;;;5.80;44.63
7918;BME280;4004;42.624;23.386;2023-03-15T00:27:10;93133.53;;;5.78;44.62
7918;BME280;4004;42.624;23.386;2023-03-15T00:29:37;93137.16;;;5.70;44.87
7918;BME280;4004;42.624;23.386;2023-03-15T00:32:05;93146.75;;;5.75;44.96
7918;BME280;4004;42.624;23.386;2023-03-15T00:34:32;93133.56;;;5.82;43.90
7918;BME280;4004;42.624;23.386;2023-03-15T00:36:59;93129.28;;;5.77;44.32
7918;BME280;4004;42.624;23.386;2023-03-15T00:39:26;93130.06;;;5.78;43.85
7918;BME280;4004;42.624;23.386;2023-03-15T00:41:52;93124.81;;;5.81;44.29
7918;BME280;4004;42.624;23.386;2023-03-15T00:44:22;93122.56;;;5.84;44.44
7918;BME280;4004;42.624;23.386;2023-03-15T00:46:50;93126.63;;;5.77;44.38
7918;BME280;4004;42.624;23.386;2023-03-15T00:49:17;93133.88;;;5.77;44.77
7918;BME280;4004;42.624;23.386;2023-03-15T00:51:44;93118.19;;;5.75;44.30
7918;BME280;4004;42.624;23.386;2023-03-15T00:54:10;93117.25;;;5.84;44.82
7918;BME280;4004;42.624;23.386;2023-03-15T00:56:38;93116.63;;;5.90;44.89
7918;BME280;4004;42.624;23.386;2023-03-15T00:59:05;93123.72;;;5.82;45.35
7918;BME280;4004;42.624;23.386;2023-03-15T01:01:33;93121.03;;;5.82;46.09
7918;BME280;4004;42.624;23.386;2023-03-15T01:04:00;93107.91;;;5.93;45.03
7918;BME280;4004;42.624;23.386;2023-03-15T01:06:27;93098.09;;;5.97;44.48
7918;BME280;4004;42.624;23.386;2023-03-15T01:08:54;93096.41;;;6.09;43.92
7918;BME280;4004;42.624;23.386;2023-03-15T01:11:23;93087.00;;;5.95;44.51
7918;BME280;4004;42.624;23.386;2023-03-15T01:13:51;93088.41;;;5.89;45.33
7918;BME280;4004;42.624;23.386;2023-03-15T01:16:18;93090.13;;;5.81;46.01
7918;BME280;4004;42.624;23.386;2023-03-15T01:18:46;93085.31;;;5.87;46.01
7918;BME280;4004;42.624;23.386;2023-03-15T01:21:16;93076.34;;;5.95;45.95
7918;BME280;4004;42.624;23.386;2023-03-15T01:23:43;93076.44;;;5.99;46.18
7918;BME280;4004;42.624;23.386;2023-03-15T01:26:11;93070.41;;;5.86;46.32
7918;BME280;4004;42.624;23.386;2023-03-15T01:28:39;93073.78;;;5.83;45.90
7918;BME280;4004;42.624;23.386;2023-03-15T01:31:06;93073.84;;;5.87;46.51
7918;BME280;4004;42.624;23.386;2023-03-15T01:33:32;93077.31;;;5.87;46.06
7918;BME280;4004;42.624;23.386;2023-03-15T01:36:02;93068.69;;;5.94;45.62
7918;BME280;4004;42.624;23.386;2023-03-15T01:38:30;93060.72;;;5.78;45.89
7918;BME280;4004;42.624;23.386;2023-03-15T01:40:57;93060.81;;;5.81;45.88
7918;BME280;4004;42.624;23.386;2023-03-15T01:43:25;93059.75;;;5.86;45.46
7918;BME280;4004;42.624;23.386;2023-03-15T01:46:13;93051.41;;;5.88;45.19
7918;BME280;4004;42.624;23.386;2023-03-15T01:48:44;93060.41;;;5.99;46.16
7918;BME280;4004;42.624;23.386;2023-03-15T01:51:18;93049.03;;;6.02;46.60
7918;BME280;4004;42.624;23.386;2023-03-15T01:53:51;93049.41;;;6.00;45.92
7918;BME280;4004;42.624;23.386;2023-03-15T01:56:20;93042.50;;;5.99;46.33
7918;BME280;4004;42.624;23.386;2023-03-15T01:58:50;93034.06;;;5.78;46.93
7918;BME280;4004;42.624;23.386;2023-03-15T02:01:19;93030.97;;;5.56;47.58
7918;BME280;4004;42.624;23.386;2023-03-15T02:03:48;93050.31;;;5.53;48.46
7918;BME280;4004;42.624;23.386;2023-03-15T02:06:20;93040.50;;;5.57;48.22
7918;BME280;4004;42.624;23.386;2023-03-15T02:08:50;93034.63;;;5.68;47.43
7918;BME280;4004;42.624;23.386;2023-03-15T02:11:20;93032.38;;;5.70;46.74
7918;BME280;4004;42.624;23.386;2023-03-15T02:13:49;93030.06;;;5.68;47.28
7918;BME280;4004;42.624;23.386;2023-03-15T02:16:17;93006.19;;;5.75;45.14
7918;BME280;4004;42.624;23.386;2023-03-15T02:18:44;93007.75;;;5.76;45.41
7918;BME280;4004;42.624;23.386;2023-03-15T02:21:21;93006.91;;;5.92;45.81
7918;BME280;4004;42.624;23.386;2023-03-15T02:23:54;93004.09;;;5.85;46.39
7918;BME280;4004;42.624;23.386;2023-03-15T02:26:27;93006.06;;;5.88;46.82
7918;BME280;4004;42.624;23.386;2023-03-15T02:28:58;93007.47;;;5.81;47.30
7918;BME280;4004;42.624;23.386;2023-03-15T02:31:25;93005.31;;;5.68;47.75
7918;BME280;4004;42.624;23.386;2023-03-15T02:33:52;93002.69;;;5.52;48.41
7918;BME280;4004;42.624;23.386;2023-03-15T02:36:22;93000.88;;;5.56;48.69
7918;BME280;4004;42.624;23.386;2023-03-15T02:38:49;93008.88;;;5.56;48.68
7918;BME280;4004;42.624;23.386;2023-03-15T02:41:18;93004.38;;;5.60;48.59
7918;BME280;4004;42.624;23.386;2023-03-15T02:43:48;92998.84;;;5.49;49.13
7918;BME280;4004;42.624;23.386;2023-03-15T02:46:19;92998.06;;;5.29;49.00
7918;BME280;4004;42.624;23.386;2023-03-15T02:48:46;92992.31;;;5.27;48.99
7918;BME280;4004;42.624;23.386;2023-03-15T02:51:20;92995.88;;;5.35;48.36
7918;BME280;4004;42.624;23.386;2023-03-15T02:53:47;92992.09;;;5.36;48.54
7918;BME280;4004;42.624;23.386;2023-03-15T02:56:15;92999.72;;;5.37;49.05
7918;BME280;4004;42.624;23.386;2023-03-15T02:58:42;92988.88;;;5.46;48.69
7918;BME280;4004;42.624;23.386;2023-03-15T03:01:10;93005.19;;;5.45;48.66
7918;BME280;4004;42.624;23.386;2023-03-15T03:03:40;92992.59;;;5.42;48.79
7918;BME280;4004;42.624;23.386;2023-03-15T03:06:11;92989.16;;;5.41;49.52
7918;BME280;4004;42.624;23.386;2023-03-15T03:08:38;92985.72;;;5.40;49.54
7918;BME280;4004;42.624;23.386;2023-03-15T03:11:05;92978.41;;;5.37;49.43
7918;BME280;4004;42.624;23.386;2023-03-15T03:13:32;92973.44;;;5.36;49.50
7918;BME280;4004;42.624;23.386;2023-03-15T03:15:59;92975.59;;;5.30;49.93
7918;BME280;4004;42.624;23.386;2023-03-15T03:18:27;92962.00;;;5.16;50.26
7918;BME280;4004;42.624;23.386;2023-03-15T03:20:56;92970.41;;;5.18;50.84
7918;BME280;4004;42.624;23.386;2023-03-15T03:23:24;92976.28;;;5.08;51.46
7918;BME280;4004;42.624;23.386;2023-03-15T03:25:52;92963.56;;;5.01;51.85
7918;BME280;4004;42.624;23.386;2023-03-15T03:28:19;92956.75;;;4.84;52.46
7918;BME280;4004;42.624;23.386;2023-03-15T03:30:46;92953.81;;;4.73;52.53
7918;BME280;4004;42.624;23.386;2023-03-15T03:33:13;92949.63;;;4.72;52.88
7918;BME280;4004;42.624;23.386;2023-03-15T03:35:39;92943.59;;;4.75;53.34
7918;BME280;4004;42.624;23.386;2023-03-15T03:38:08;92947.41;;;4.74;53.30
7918;BME280;4004;42.624;23.386;2023-03-15T03:40:36;92944.47;;;4.80;53.58
7918;BME280;4004;42.624;23.386;2023-03-15T03:43:02;92949.03;;;4.79;53.93
7918;BME280;4004;42.624;23.386;2023-03-15T03:45:29;92937.25;;;4.80;55.17
7918;BME280;4004;42.624;23.386;2023-03-15T03:47:56;92943.84;;;4.86;55.17
7918;BME280;4004;42.624;23.386;2023-03-15T03:50:23;92944.09;;;4.97;55.33
7918;BME280;4004;42.624;23.386;2023-03-15T03:52:50;92932.94;;;4.91;55.53
7918;BME280;4004;42.624;23.386;2023-03-15T03:55:18;92935.81;;;5.02;55.39
7918;BME280;4004;42.624;23.386;2023-03-15T03:57:49;92928.63;;;5.03;55.38
7918;BME280;4004;42.624;23.386;2023-03-15T04:00:17;92935.00;;;4.98;55.54
7918;BME280;4004;42.624;23.386;2023-03-15T04:02:44;92932.44;;;4.86;56.76
7918;BME280;4004;42.624;23.386;2023-03-15T04:05:11;92933.34;;;4.93;57.16
7918;BME280;4004;42.624;23.386;2023-03-15T04:07:38;92924.44;;;4.86;57.55
7918;BME280;4004;42.624;23.386;2023-03-15T04:10:06;92923.81;;;4.92;58.23
7918;BME280;4004;42.624;23.386;2023-03-15T04:12:34;92925.00;;;4.95;58.13
7918;BME280;4004;42.624;23.386;2023-03-15T04:15:01;92923.94;;;4.80;58.51
7918;BME280;4004;42.624;23.386;2023-03-15T04:17:28;92913.66;;;4.78;59.33
7918;BME280;4004;42.624;23.386;2023-03-15T04:19:54;92913.25;;;4.61;60.61
7918;BME280;4004;42.624;23.386;2023-03-15T04:22:21;92912.06;;;4.58;61.20
7918;BME280;4004;42.624;23.386;2023-03-15T04:24:48;92911.03;;;4.63;61.18
7918;BME280;4004;42.624;23.386;2023-03-15T04:27:18;92910.03;;;4.71;61.23
7918;BME280;4004;42.624;23.386;2023-03-15T04:29:46;92918.31;;;4.66;61.54
7918;BME280;4004;42.624;23.386;2023-03-15T04:32:13;92913.41;;;4.68;61.91
7918;BME280;4004;42.624;23.386;2023-03-15T04:34:42;92918.59;;;4.80;60.17
7918;BME280;4004;42.624;23.386;2023-03-15T04:37:09;92910.28;;;4.82;60.88
7918;BME280;4004;42.624;23.386;2023-03-15T04:39:36;92910.22;;;4.78;60.54
7918;BME280;4004;42.624;23.386;2023-03-15T04:42:03;92915.31;;;4.67;60.55
7918;BME280;4004;42.624;23.386;2023-03-15T04:44:30;92915.69;;;4.50;62.43
7918;BME280;4004;42.624;23.386;2023-03-15T04:46:58;92907.41;;;4.55;62.21
7918;BME280;4004;42.624;23.386;2023-03-15T04:49:25;92910.34;;;4.50;63.04
7918;BME280;4004;42.624;23.386;2023-03-15T04:51:52;92913.44;;;4.52;63.53
7918;BME280;4004;42.624;23.386;2023-03-15T04:54:18;92917.38;;;4.58;63.47
7918;BME280;4004;42.624;23.386;2023-03-15T04:56:45;92920.97;;;4.66;63.54
7918;BME280;4004;42.624;23.386;2023-03-15T04:59:12;92923.69;;;4.85;63.51
7918;BME280;4004;42.624;23.386;2023-03-15T05:01:39;92926.19;;;4.97;62.40
7918;BME280;4004;42.624;23.386;2023-03-15T05:04:07;92923.47;;;4.94;61.83
7918;BME280;4004;42.624;23.386;2023-03-15T05:06:34;92924.53;;;4.89;62.06
7918;BME280;4004;42.624;23.386;2023-03-15T05:09:00;92928.25;;;4.85;62.82
7918;BME280;4004;42.624;23.386;2023-03-15T05:11:28;92923.72;;;5.05;62.42
7918;BME280;4004;42.624;23.386;2023-03-15T05:13:55;92918.88;;;5.30;61.43
7918;BME280;4004;42.624;23.386;2023-03-15T05:16:22;92922.16;;;5.62;59.68
7918;BME280;4004;42.624;23.386;2023-03-15T05:18:48;92924.78;;;5.81;58.76
7918;BME280;4004;42.624;23.386;2023-03-15T05:21:17;92915.06;;;5.93;58.20
7918;BME280;4004;42.624;23.386;2023-03-15T05:23:43;92916.31;;;6.18;57.77
7918;BME280;4004;42.624;23.386;2023-03-15T05:26:10;92919.22;;;6.10;57.13
7918;BME280;4004;42.624;23.386;2023-03-15T05:28:37;92928.63;;;6.04;57.20
7918;BME280;4004;42.624;23.386;2023-03-15T05:31:04;92918.69;;;6.00;57.48
7918;BME280;4004;42.624;23.386;2023-03-15T05:33:30;92904.94;;;5.98;58.56
7918;BME280;4004;42.624;23.386;2023-03-15T05:35:57;92908.97;;;6.12;57.83
7918;BME280;4004;42.624;23.386;2023-03-15T05:38:26;92907.66;;;6.25;57.78
7918;BME280;4004;42.624;23.386;2023-03-15T05:40:53;92910.88;;;6.38;57.16
7918;BME280;4004;42.624;23.386;2023-03-15T05:43:20;92906.84;;;6.48;56.71
7918;BME280;4004;42.624;23.386;2023-03-15T05:45:47;92906.19;;;6.54;56.00
7918;BME280;4004;42.624;23.386;2023-03-15T05:48:14;92902.09;;;6.60;56.50
7918;BME280;4004;42.624;23.386;2023-03-15T05:50:41;92899.78;;;6.59;55.68
7918;BME280;4004;42.624;23.386;2023-03-15T05:53:08;92909.03;;;6.65;55.54
7918;BME280;4004;42.624;23.386;2023-03-15T05:55:37;92918.31;;;6.75;55.41
7918;BME280;4004;42.624;23.386;2023-03-15T05:58:03;92927.47;;;6.74;54.93
7918;BME280;4004;42.624;23.386;2023-03-15T06:00:30;92892.94;;;6.61;54.72
7918;BME280;4004;42.624;23.386;2023-03-15T06:02:57;92918.66;;;6.73;55.73
7918;BME280;4004;42.624;23.386;2023-03-15T06:05:24;92915.03;;;6.58;55.55
7918;BME280;4004;42.624;23.386;2023-03-15T06:07:51;92917.88;;;6.46;55.94
7918;BME280;4004;42.624;23.386;2023-03-15T06:10:18;92931.72;;;6.52;56.03
7918;BME280;4004;42.624;23.386;2023-03-15T06:12:46;92917.28;;;6.56;56.42
7918;BME280;4004;42.624;23.386;2023-03-15T06:15:14;92911.47;;;6.51;56.77
7918;BME280;4004;42.624;23.386;2023-03-15T06:17:41;92906.22;;;6.58;57.08
7918;BME280;4004;42.624;23.386;2023-03-15T06:20:09;92900.41;;;7.05;56.32
7918;BME280;4004;42.624;23.386;2023-03-15T06:22:36;92913.81;;;7.39;54.59
7918;BME280;4004;42.624;23.386;2023-03-15T06:25:04;92910.72;;;7.37;53.75
7918;BME280;4004;42.624;23.386;2023-03-15T06:27:30;92906.53;;;7.36;53.77
7918;BME280;4004;42.624;23.386;2023-03-15T06:29:58;92894.16;;;7.58;53.40
7918;BME280;4004;42.624;23.386;2023-03-15T06:32:25;92894.53;;;7.57;52.64
7918;BME280;4004;42.624;23.386;2023-03-15T06:34:52;92888.19;;;7.72;52.83
7918;BME280;4004;42.624;23.386;2023-03-15T06:37:19;92897.22;;;7.98;51.39
7918;BME280;4004;42.624;23.386;2023-03-15T06:39:46;92895.44;;;8.13;50.87
7918;BME280;4004;42.624;23.386;2023-03-15T06:42:13;92897.56;;;7.93;50.44
7918;BME280;4004;42.624;23.386;2023-03-15T06:44:40;92898.47;;;8.07;50.43
7918;BME280;4004;42.624;23.386;2023-03-15T06:47:09;92894.13;;;8.37;49.53
7918;BME280;4004;42.624;23.386;2023-03-15T06:49:37;92890.94;;;8.68;49.64
7918;BME280;4004;42.624;23.386;2023-03-15T06:52:05;92892.16;;;8.82;48.93
7918;BME280;4004;42.624;23.386;2023-03-15T06:54:32;92900.25;;;8.89;47.45
7918;BME280;4004;42.624;23.386;2023-03-15T06:56:59;92898.50;;;8.56;47.92
7918;BME280;4004;42.624;23.386;2023-03-15T06:59:25;92888.72;;;8.33;48.74
7918;BME280;4004;42.624;23.386;2023-03-15T07:01:52;92879.72;;;8.52;47.98
7918;BME280;4004;42.624;23.386;2023-03-15T07:04:20;92886.91;;;9.00;47.21
7918;BME280;4004;42.624;23.386;2023-03-15T07:06:47;92884.91;;;9.70;45.64
7918;BME280;4004;42.624;23.386;2023-03-15T07:09:14;92891.19;;;10.35;44.65
7918;BME280;4004;42.624;23.386;2023-03-15T07:11:41;92891.94;;;10.78;43.45
7918;BME280;4004;42.624;23.386;2023-03-15T07:14:08;92886.53;;;10.93;42.39
7918;BME280;4004;42.624;23.386;2023-03-15T07:16:35;92895.28;;;11.33;41.95
7918;BME280;4004;42.624;23.386;2023-03-15T07:19:02;92895.69;;;11.28;40.78
7918;BME280;4004;42.624;23.386;2023-03-15T07:21:30;92893.78;;;11.21;40.85
7918;BME280;4004;42.624;23.386;2023-03-15T07:23:57;92887.94;;;11.44;41.94
7918;BME280;4004;42.624;23.386;2023-03-15T07:26:23;92892.97;;;11.31;42.33
7918;BME280;4004;42.624;23.386;2023-03-15T07:28:50;92890.34;;;11.10;41.83
7918;BME280;4004;42.624;23.386;2023-03-15T07:31:17;92882.72;;;10.79;41.68
7918;BME280;4004;42.624;23.386;2023-03-15T07:33:44;92877.34;;;10.69;41.60
7918;BME280;4004;42.624;23.386;2023-03-15T07:36:10;92889.63;;;10.84;41.36
7918;BME280;4004;42.624;23.386;2023-03-15T07:38:39;92901.53;;;10.94;41.47
7918;BME280;4004;42.624;23.386;2023-03-15T07:41:06;92899.56;;;11.12;40.97
7918;BME280;4004;42.624;23.386;2023-03-15T07:43:33;92894.56;;;11.14;41.05
7918;BME280;4004;42.624;23.386;2023-03-15T07:46:00;92889.63;;;10.84;41.06
7918;BME280;4004;42.624;23.386;2023-03-15T07:48:27;92897.28;;;11.00;40.91
7918;BME280;4004;42.624;23.386;2023-03-15T07:50:55;92895.75;;;10.88;41.30
7918;BME280;4004;42.624;23.386;2023-03-15T07:53:22;92891.91;;;11.07;40.53
7918;BME280;4004;42.624;23.386;2023-03-15T07:55:51;92886.91;;;10.95;40.82
7918;BME280;4004;42.624;23.386;2023-03-15T07:58:18;92895.75;;;10.95;40.78
7918;BME280;4004;42.624;23.386;2023-03-15T08:00:44;92892.69;;;10.86;41.28
7918;BME280;4004;42.624;23.386;2023-03-15T08:03:11;92892.69;;;10.97;40.89
7918;BME280;4004;42.624;23.386;2023-03-15T08:05:38;92884.63;;;10.79;41.51
7918;BME280;4004;42.624;23.386;2023-03-15T08:08:05;92886.88;;;11.09;41.55
7918;BME280;4004;42.624;23.386;2023-03-15T08:10:32;92884.44;;;11.51;40.68
7918;BME280;4004;42.624;23.386;2023-03-15T08:13:00;92882.06;;;11.71;40.12
7918;BME280;4004;42.624;23.386;2023-03-15T08:15:27;92877.00;;;11.80;40.37
7918;BME280;4004;42.624;23.386;2023-03-15T08:17:54;92870.91;;;11.69;41.45
7918;BME280;4004;42.624;23.386;2023-03-15T08:20:20;92857.31;;;11.94;40.76
7918;BME280;4004;42.624;23.386;2023-03-15T08:22:48;92848.22;;;12.36;39.55
7918;BME280;4004;42.624;23.386;2023-03-15T08:25:17;92848.72;;;12.65;39.44
7918;BME280;4004;42.624;23.386;2023-03-15T08:27:45;92855.25;;;13.10;38.66
7918;BME280;4004;42.624;23.386;2023-03-15T08:30:14;92858.16;;;13.26;39.13
7918;BME280;4004;42.624;23.386;2023-03-15T08:32:42;92859.06;;;13.12;38.53
7918;BME280;4004;42.624;23.386;2023-03-15T08:35:10;92847.28;;;12.95;38.95
7918;BME280;4004;42.624;23.386;2023-03-15T08:37:38;92851.09;;;13.01;38.93
7918;BME280;4004;42.624;23.386;2023-03-15T08:40:06;92855.94;;;12.76;38.92
7918;BME280;4004;42.624;23.386;2023-03-15T08:42:34;92858.19;;;12.39;39.48
7918;BME280;4004;42.624;23.386;2023-03-15T08:45:02;92852.69;;;12.01;39.96
7918;BME280;4004;42.624;23.386;2023-03-15T08:47:30;92845.41;;;11.91;40.33
7918;BME280;4004;42.624;23.386;2023-03-15T08:49:59;92857.13;;;11.56;40.55
7918;BME280;4004;42.624;23.386;2023-03-15T08:52:26;92850.22;;;11.55;40.62
7918;BME280;4004;42.624;23.386;2023-03-15T08:54:53;92852.47;;;11.64;41.04
7918;BME280;4004;42.624;23.386;2023-03-15T08:57:20;92850.97;;;11.59;40.99
7918;BME280;4004;42.624;23.386;2023-03-15T08:59:50;92861.97;;;11.82;40.11
7918;BME280;4004;42.624;23.386;2023-03-15T09:02:16;92869.84;;;12.22;39.66
7918;BME280;4004;42.624;23.386;2023-03-15T09:04:45;92854.22;;;12.55;39.09
7918;BME280;4004;42.624;23.386;2023-03-15T09:07:11;92860.09;;;12.88;38.72
7918;BME280;4004;42.624;23.386;2023-03-15T09:09:38;92857.28;;;12.98;38.31
7918;BME280;4004;42.624;23.386;2023-03-15T09:12:05;92856.13;;;12.96;38.12
7918;BME280;4004;42.624;23.386;2023-03-15T09:14:32;92857.56;;;12.66;38.60
7918;BME280;4004;42.624;23.386;2023-03-15T09:16:59;92859.00;;;12.36;39.57
7918;BME280;4004;42.624;23.386;2023-03-15T09:19:26;92864.59;;;12.00;39.94
7918;BME280;4004;42.624;23.386;2023-03-15T09:21:54;92867.72;;;11.95;40.09
7918;BME280;4004;42.624;23.386;2023-03-15T09:24:21;92872.66;;;12.04;40.13
7918;BME280;4004;42.624;23.386;2023-03-15T09:26:47;92868.00;;;12.12;40.25
7918;BME280;4004;42.624;23.386;2023-03-15T09:29:14;92856.44;;;12.15;39.59
7918;BME280;4004;42.624;23.386;2023-03-15T09:31:41;92860.25;;;12.17;39.70
7918;BME280;4004;42.624;23.386;2023-03-15T09:34:08;92853.25;;;12.27;39.46
7918;BME280;4004;42.624;23.386;2023-03-15T09:36:34;92853.00;;;12.11;39.28
7918;BME280;4004;42.624;23.386;2023-03-15T09:39:03;92848.69;;;12.20;39.61
7918;BME280;4004;42.624;23.386;2023-03-15T09:41:40;92848.09;;;11.98;40.22
7918;BME280;4004;42.624;23.386;2023-03-15T09:44:24;92841.16;;;11.94;39.97
7918;BME280;4004;42.624;23.386;2023-03-15T09:47:04;92834.59;;;12.02;40.40
7918;BME280;4004;42.624;23.386;2023-03-15T09:49:40;92832.25;;;12.04;40.14
7918;BME280;4004;42.624;23.386;2023-03-15T09:52:21;92829.13;;;12.13;39.82
7918;BME280;4004;42.624;23.386;2023-03-15T09:54:53;92820.72;;;12.03;40.05
7918;BME280;4004;42.624;23.386;2023-03-15T09:57:24;92816.59;;;11.88;40.28
7918;BME280;4004;42.624;23.386;2023-03-15T09:59:57;92818.88;;;11.93;40.27
7918;BME280;4004;42.624;23.386;2023-03-15T10:02:27;92828.38;;;12.12;40.19
7918;BME280;4004;42.624;23.386;2023-03-15T10:04:57;92829.75;;;12.31;39.86
7918;BME280;4004;42.624;23.386;2023-03-15T10:07:26;92822.66;;;12.52;39.64
7918;BME280;4004;42.624;23.386;2023-03-15T10:09:54;92823.09;;;12.47;39.37
7918;BME280;4004;42.624;23.386;2023-03-15T10:12:28;92822.84;;;12.30;39.65
7918;BME280;4004;42.624;23.386;2023-03-15T10:15:15;92828.41;;;12.05;40.61
7918;BME280;4004;42.624;23.386;2023-03-15T10:17:49;92825.41;;;11.92;40.79
7918;BME280;4004;42.624;23.386;2023-03-15T10:20:24;92829.28;;;11.84;40.84
7918;BME280;4004;42.624;23.386;2023-03-15T10:22:54;92820.06;;;11.85;40.97
7918;BME280;4004;42.624;23.386;2023-03-15T10:25:25;92832.13;;;12.22;40.19
7918;BME280;4004;42.624;23.386;2023-03-15T10:27:55;92824.66;;;12.44;39.49
7918;BME280;4004;42.624;23.386;2023-03-15T10:30:24;92816.41;;;12.62;39.23
7918;BME280;4004;42.624;23.386;2023-03-15T10:32:54;92821.13;;;12.51;39.00
7918;BME280;4004;42.624;23.386;2023-03-15T10:35:22;92825.47;;;12.37;39.44
7918;BME280;4004;42.624;23.386;2023-03-15T10:37:49;92822.78;;;12.34;39.45
7918;BME280;4004;42.624;23.386;2023-03-15T10:40:41;92827.25;;;12.06;39.97
7918;BME280;4004;42.624;23.386;2023-03-15T10:43:20;92823.13;;;11.91;40.45
7918;BME280;4004;42.624;23.386;2023-03-15T10:45:58;92817.72;;;11.91;40.19
7918;BME280;4004;42.624;23.386;2023-03-15T10:48:25;92810.03;;;11.93;40.10
7918;BME280;4004;42.624;23.386;2023-03-15T10:50:53;92819.22;;;11.99;40.42
7918;BME280;4004;42.624;23.386;2023-03-15T10:53:20;92818.78;;;12.08;39.91
7918;BME280;4004;42.624;23.386;2023-03-15T10:55:57;92814.44;;;12.21;39.61
7918;BME280;4004;42.624;23.386;2023-03-15T10:58:27;92816.34;;;12.24;39.45
7918;BME280;4004;42.624;23.386;2023-03-15T11:00:59;92818.28;;;12.20;39.52
7918;BME280;4004;42.624;23.386;2023-03-15T11:03:27;92809.00;;;12.28;39.12
7918;BME280;4004;42.624;23.386;2023-03-15T11:05:55;92814.84;;;12.19;39.77
7918;BME280;4004;42.624;23.386;2023-03-15T11:08:24;92803.88;;;11.92;39.52
7918;BME280;4004;42.624;23.386;2023-03-15T11:10:57;92815.03;;;11.87;39.84
7918;BME280;4004;42.624;23.386;2023-03-15T11:13:25;92816.22;;;11.82;40.18
7918;BME280;4004;42.624;23.386;2023-03-15T11:15:58;92807.75;;;11.88;40.03
7918;BME280;4004;42.624;23.386;2023-03-15T11:18:31;92803.44;;;11.97;39.98
7918;BME280;4004;42.624;23.386;2023-03-15T11:20:58;92797.47;;;12.28;39.75
7918;BME280;4004;42.624;23.386;2023-03-15T11:23:28;92801.16;;;12.44;39.10
7918;BME280;4004;42.624;23.386;2023-03-15T11:25:58;92798.09;;;12.42;39.19
7918;BME280;4004;42.624;23.386;2023-03-15T11:28:29;92809.13;;;12.59;38.79
7918;BME280;4004;42.624;23.386;2023-03-15T11:30:57;92804.69;;;12.76;38.74
7918;BME280;4004;42.624;23.386;2023-03-15T11:33:37;92796.13;;;12.88;38.80
7918;BME280;4004;42.624;23.386;2023-03-15T11:36:09;92787.31;;;12.80;38.67
7918;BME280;4004;42.624;23.386;2023-03-15T11:38:40;92799.19;;;12.90;38.48
7918;BME280;4004;42.624;23.386;2023-03-15T11:41:19;92791.13;;;13.21;38.05
7918;BME280;4004;42.624;23.386;2023-03-15T11:43:55;92805.94;;;13.05;38.12
7918;BME280;4004;42.624;23.386;2023-03-15T11:46:29;92799.31;;;12.76;38.84
7918;BME280;4004;42.624;23.386;2023-03-15T11:49:02;92789.44;;;12.62;39.42
7918;BME280;4004;42.624;23.386;2023-03-15T11:51:32;92794.06;;;12.61;39.13
7918;BME280;4004;42.624;23.386;2023-03-15T11:54:06;92796.78;;;12.58;39.45
7918;BME280;4004;42.624;23.386;2023-03-15T11:56:47;92787.47;;;12.66;39.88
7918;BME280;4004;42.624;23.386;2023-03-15T11:59:18;92785.53;;;12.70;39.25
7918;BME280;4004;42.624;23.386;2023-03-15T12:01:47;92800.66;;;12.57;39.22
7918;BME280;4004;42.624;23.386;2023-03-15T12:04:37;92785.53;;;12.70;39.25
7918;BME280;4004;42.624;23.386;2023-03-15T12:07:07;92774.94;;;12.49;39.72
7918;BME280;4004;42.624;23.386;2023-03-15T12:09:50;92772.50;;;12.61;39.61
7918;BME280;4004;42.624;23.386;2023-03-15T12:12:44;92757.44;;;12.64;39.18
7918;BME280;4004;42.624;23.386;2023-03-15T12:15:43;92768.69;;;12.59;39.14
7918;BME280;4004;42.624;23.386;2023-03-15T12:18:15;92761.72;;;12.61;39.12
7918;BME280;4004;42.624;23.386;2023-03-15T12:20:49;92750.34;;;12.43;39.62
7918;BME280;4004;42.624;23.386;2023-03-15T12:23:32;92770.16;;;12.22;39.72
7918;BME280;4004;42.624;23.386;2023-03-15T12:26:05;92772.94;;;12.15;39.88
7918;BME280;4004;42.624;23.386;2023-03-15T12:28:37;92768.88;;;11.89;40.43
7918;BME280;4004;42.624;23.386;2023-03-15T12:31:08;92761.50;;;12.00;40.29
7918;BME280;4004;42.624;23.386;2023-03-15T12:33:45;92754.53;;;12.02;40.29
7918;BME280;4004;42.624;23.386;2023-03-15T12:36:19;92754.53;;;12.06;40.28
7918;BME280;4004;42.624;23.386;2023-03-15T12:38:58;92756.09;;;12.00;40.48
7918;BME280;4004;42.624;23.386;2023-03-15T12:41:34;92757.75;;;11.83;40.90
7918;BME280;4004;42.624;23.386;2023-03-15T12:46:58;92744.00;;;11.67;41.63
7918;BME280;4004;42.624;23.386;2023-03-15T12:49:37;92745.88;;;11.77;41.35
7918;BME280;4004;42.624;23.386;2023-03-15T12:52:11;92742.41;;;11.76;41.38
7918;BME280;4004;42.624;23.386;2023-03-15T12:54:44;92747.81;;;11.73;41.25
7918;BME280;4004;42.624;23.386;2023-03-15T12:57:14;92745.44;;;11.82;41.04
7918;BME280;4004;42.624;23.386;2023-03-15T12:59:48;92750.06;;;11.81;41.29
7918;BME280;4004;42.624;23.386;2023-03-15T13:02:30;92748.25;;;11.64;41.94
7918;BME280;4004;42.624;23.386;2023-03-15T13:05:11;92752.50;;;11.61;41.75
7918;BME280;4004;42.624;23.386;2023-03-15T13:07:51;92735.16;;;11.66;41.84
7918;BME280;4004;42.624;23.386;2023-03-15T13:10:37;92732.38;;;11.88;41.46
7918;BME280;4004;42.624;23.386;2023-03-15T13:13:23;92736.94;;;11.87;41.18
7918;BME280;4004;42.624;23.386;2023-03-15T13:16:00;92735.44;;;11.82;41.27
7918;BME280;4004;42.624;23.386;2023-03-15T13:18:40;92748.91;;;11.82;41.79
7918;BME280;4004;42.624;23.386;2023-03-15T13:21:14;92740.13;;;11.75;41.75
7918;BME280;4004;42.624;23.386;2023-03-15T13:23:48;92752.06;;;11.74;41.65
7918;BME280;4004;42.624;23.386;2023-03-15T13:26:24;92744.75;;;11.71;41.51
7918;BME280;4004;42.624;23.386;2023-03-15T13:28:58;92749.00;;;11.68;41.79
7918;BME280;4004;42.624;23.386;2023-03-15T13:31:27;92747.88;;;11.62;41.94